sensor_id;sensor_type;location;lat;lon;timestamp;P1;durP1;ratioP1;P2;durP2;ratioP2
12635;SDS011;6383;50.830;7.210;2023-11-19T00:00:20;0.98;;;0.70;;
12635;SDS011;6383;50.830;7.210;2023-11-19T00:02:51;3.63;;;0.93;;
12635;SDS011;6383;50.830;7.210;2023-11-19T00:05:19;4.00;;;0.70;;
12635;SDS011;6383;50.830;7.210;2023-11-19T00:07:48;1.30;;;0.60;;
12635;SDS011;6383;50.830;7.210;2023-11-19T00:10:18;2.70;;;0.70;;
12635;SDS011;6383;50.830;7.210;2023-11-19T00:12:47;1.13;;;0.60;;
12635;SDS011;6383;50.830;7.210;2023-11-19T00:15:15;0.60;;;0.60;;
12635;SDS011;6383;50.830;7.210;2023-11-19T00:17:44;0.93;;;0.57;;
12635;SDS011;6383;50.830;7.210;2023-11-19T00:20:12;1.20;;;0.50;;
12635;SDS011;6383;50.830;7.210;2023-11-19T00:22:39;1.63;;;0.60;;
12635;SDS011;6383;50.830;7.210;2023-11-19T00:25:09;2.50;;;0.70;;
12635;SDS011;6383;50.830;7.210;2023-11-19T00:27:38;3.25;;;0.80;;
12635;SDS011;6383;50.830;7.210;2023-11-19T00:30:07;2.72;;;0.63;;
12635;SDS011;6383;50.830;7.210;2023-11-19T00:32:35;1.85;;;0.50;;
12635;SDS011;6383;50.830;7.210;2023-11-19T00:35:05;5.32;;;0.80;;
12635;SDS011;6383;50.830;7.210;2023-11-19T00:37:34;2.90;;;0.50;;
12635;SDS011;6383;50.830;7.210;2023-11-19T00:40:02;3.30;;;0.57;;
12635;SDS011;6383;50.830;7.210;2023-11-19T00:42:31;1.50;;;0.70;;
12635;SDS011;6383;50.830;7.210;2023-11-19T00:45:00;1.83;;;0.65;;
12635;SDS011;6383;50.830;7.210;2023-11-19T00:47:29;1.25;;;0.57;;
12635;SDS011;6383;50.830;7.210;2023-11-19T00:49:58;0.80;;;0.60;;
12635;SDS011;6383;50.830;7.210;2023-11-19T00:52:25;0.75;;;0.55;;
12635;SDS011;6383;50.830;7.210;2023-11-19T00:54:52;0.60;;;0.60;;
12635;SDS011;6383;50.830;7.210;2023-11-19T00:57:19;0.90;;;0.70;;
12635;SDS011;6383;50.830;7.210;2023-11-19T00:59:46;1.23;;;0.83;;
12635;SDS011;6383;50.830;7.210;2023-11-19T01:02:15;1.10;;;0.60;;
12635;SDS011;6383;50.830;7.210;2023-11-19T01:04:44;3.20;;;0.60;;
12635;SDS011;6383;50.830;7.210;2023-11-19T01:07:12;1.00;;;0.63;;
12635;SDS011;6383;50.830;7.210;2023-11-19T01:09:41;1.60;;;0.60;;
12635;SDS011;6383;50.830;7.210;2023-11-19T01:12:10;2.10;;;0.60;;
12635;SDS011;6383;50.830;7.210;2023-11-19T01:14:38;3.17;;;0.60;;
12635;SDS011;6383;50.830;7.210;2023-11-19T01:17:06;1.23;;;0.52;;
12635;SDS011;6383;50.830;7.210;2023-11-19T01:19:37;2.72;;;0.52;;
12635;SDS011;6383;50.830;7.210;2023-11-19T01:22:06;1.42;;;0.55;;
12635;SDS011;6383;50.830;7.210;2023-11-19T01:24:34;1.10;;;0.55;;
12635;SDS011;6383;50.830;7.210;2023-11-19T01:27:02;1.15;;;0.60;;
12635;SDS011;6383;50.830;7.210;2023-11-19T01:29:30;0.47;;;0.45;;
12635;SDS011;6383;50.830;7.210;2023-11-19T01:31:58;3.53;;;0.70;;
12635;SDS011;6383;50.830;7.210;2023-11-19T01:34:26;1.25;;;0.40;;
12635;SDS011;6383;50.830;7.210;2023-11-19T01:36:55;3.92;;;0.57;;
12635;SDS011;6383;50.830;7.210;2023-11-19T01:39:24;0.67;;;0.43;;
12635;SDS011;6383;50.830;7.210;2023-11-19T01:41:53;1.67;;;0.47;;
12635;SDS011;6383;50.830;7.210;2023-11-19T01:44:20;2.30;;;0.50;;
12635;SDS011;6383;50.830;7.210;2023-11-19T01:46:49;1.90;;;0.50;;
12635;SDS011;6383;50.830;7.210;2023-11-19T01:49:18;0.40;;;0.40;;
12635;SDS011;6383;50.830;7.210;2023-11-19T01:51:48;0.95;;;0.50;;
12635;SDS011;6383;50.830;7.210;2023-11-19T01:54:18;1.40;;;0.55;;
12635;SDS011;6383;50.830;7.210;2023-11-19T01:56:47;1.40;;;0.43;;
12635;SDS011;6383;50.830;7.210;2023-11-19T01:59:15;2.28;;;0.90;;
12635;SDS011;6383;50.830;7.210;2023-11-19T02:01:43;2.33;;;0.50;;
12635;SDS011;6383;50.830;7.210;2023-11-19T02:04:12;3.70;;;0.52;;
12635;SDS011;6383;50.830;7.210;2023-11-19T02:06:41;2.03;;;0.50;;
12635;SDS011;6383;50.830;7.210;2023-11-19T02:09:09;3.47;;;0.60;;
12635;SDS011;6383;50.830;7.210;2023-11-19T02:11:40;1.60;;;0.50;;
12635;SDS011;6383;50.830;7.210;2023-11-19T02:14:08;0.88;;;0.45;;
12635;SDS011;6383;50.830;7.210;2023-11-19T02:16:38;3.47;;;0.87;;
12635;SDS011;6383;50.830;7.210;2023-11-19T02:19:05;3.80;;;0.50;;
12635;SDS011;6383;50.830;7.210;2023-11-19T02:21:35;3.88;;;0.70;;
12635;SDS011;6383;50.830;7.210;2023-11-19T02:24:03;2.13;;;0.60;;
12635;SDS011;6383;50.830;7.210;2023-11-19T02:26:36;0.90;;;0.55;;
12635;SDS011;6383;50.830;7.210;2023-11-19T02:29:08;1.02;;;0.80;;
12635;SDS011;6383;50.830;7.210;2023-11-19T02:31:36;1.87;;;0.50;;
12635;SDS011;6383;50.830;7.210;2023-11-19T02:34:04;2.53;;;0.50;;
12635;SDS011;6383;50.830;7.210;2023-11-19T02:36:35;1.73;;;0.50;;
12635;SDS011;6383;50.830;7.210;2023-11-19T02:39:04;2.67;;;0.60;;
12635;SDS011;6383;50.830;7.210;2023-11-19T02:41:37;1.20;;;0.50;;
12635;SDS011;6383;50.830;7.210;2023-11-19T02:44:08;2.10;;;0.50;;
12635;SDS011;6383;50.830;7.210;2023-11-19T02:46:37;3.40;;;0.70;;
12635;SDS011;6383;50.830;7.210;2023-11-19T02:49:04;3.50;;;0.73;;
12635;SDS011;6383;50.830;7.210;2023-11-19T02:51:34;1.80;;;0.50;;
12635;SDS011;6383;50.830;7.210;2023-11-19T02:54:02;1.88;;;0.50;;
12635;SDS011;6383;50.830;7.210;2023-11-19T02:56:30;1.05;;;0.40;;
12635;SDS011;6383;50.830;7.210;2023-11-19T02:59:02;0.50;;;0.50;;
12635;SDS011;6383;50.830;7.210;2023-11-19T03:01:36;1.40;;;0.70;;
12635;SDS011;6383;50.830;7.210;2023-11-19T03:04:09;2.78;;;0.70;;
12635;SDS011;6383;50.830;7.210;2023-11-19T03:06:39;3.80;;;0.60;;
12635;SDS011;6383;50.830;7.210;2023-11-19T03:09:08;2.20;;;0.50;;
12635;SDS011;6383;50.830;7.210;2023-11-19T03:11:38;2.27;;;0.60;;
12635;SDS011;6383;50.830;7.210;2023-11-19T03:14:05;1.50;;;0.52;;
12635;SDS011;6383;50.830;7.210;2023-11-19T03:16:36;2.40;;;0.50;;
12635;SDS011;6383;50.830;7.210;2023-11-19T03:19:05;4.00;;;0.68;;
12635;SDS011;6383;50.830;7.210;2023-11-19T03:21:32;2.58;;;0.38;;
12635;SDS011;6383;50.830;7.210;2023-11-19T03:24:00;2.20;;;0.80;;
12635;SDS011;6383;50.830;7.210;2023-11-19T03:26:29;3.58;;;0.70;;
12635;SDS011;6383;50.830;7.210;2023-11-19T03:28:57;3.83;;;0.65;;
12635;SDS011;6383;50.830;7.210;2023-11-19T03:31:24;2.45;;;0.80;;
12635;SDS011;6383;50.830;7.210;2023-11-19T03:33:54;2.67;;;0.88;;
12635;SDS011;6383;50.830;7.210;2023-11-19T03:36:21;4.90;;;1.00;;
12635;SDS011;6383;50.830;7.210;2023-11-19T03:38:50;5.82;;;0.70;;
12635;SDS011;6383;50.830;7.210;2023-11-19T03:41:19;10.32;;;9.30;;
12635;SDS011;6383;50.830;7.210;2023-11-19T03:43:48;18.33;;;14.90;;
12635;SDS011;6383;50.830;7.210;2023-11-19T03:46:17;7.28;;;5.25;;
12635;SDS011;6383;50.830;7.210;2023-11-19T03:48:46;8.80;;;3.03;;
12635;SDS011;6383;50.830;7.210;2023-11-19T03:51:16;3.08;;;2.20;;
12635;SDS011;6383;50.830;7.210;2023-11-19T03:53:44;9.65;;;1.30;;
12635;SDS011;6383;50.830;7.210;2023-11-19T03:56:12;11.02;;;1.30;;
12635;SDS011;6383;50.830;7.210;2023-11-19T03:58:40;2.75;;;0.90;;
12635;SDS011;6383;50.830;7.210;2023-11-19T04:01:10;3.25;;;2.10;;
12635;SDS011;6383;50.830;7.210;2023-11-19T04:03:39;4.18;;;2.10;;
12635;SDS011;6383;50.830;7.210;2023-11-19T04:06:07;5.55;;;2.05;;
12635;SDS011;6383;50.830;7.210;2023-11-19T04:08:38;5.32;;;1.70;;
12635;SDS011;6383;50.830;7.210;2023-11-19T04:11:05;7.60;;;1.10;;
12635;SDS011;6383;50.830;7.210;2023-11-19T04:13:34;6.95;;;1.00;;
12635;SDS011;6383;50.830;7.210;2023-11-19T04:16:02;6.05;;;1.10;;
12635;SDS011;6383;50.830;7.210;2023-11-19T04:18:30;9.68;;;1.23;;
12635;SDS011;6383;50.830;7.210;2023-11-19T04:20:58;4.68;;;0.85;;
12635;SDS011;6383;50.830;7.210;2023-11-19T04:23:25;4.03;;;1.05;;
12635;SDS011;6383;50.830;7.210;2023-11-19T04:25:55;3.85;;;1.23;;
12635;SDS011;6383;50.830;7.210;2023-11-19T04:28:22;7.88;;;1.92;;
12635;SDS011;6383;50.830;7.210;2023-11-19T04:30:50;9.25;;;1.92;;
12635;SDS011;6383;50.830;7.210;2023-11-19T04:33:18;9.05;;;1.73;;
12635;SDS011;6383;50.830;7.210;2023-11-19T04:35:47;9.68;;;1.90;;
12635;SDS011;6383;50.830;7.210;2023-11-19T04:38:16;11.25;;;2.08;;
12635;SDS011;6383;50.830;7.210;2023-11-19T04:40:45;8.45;;;1.70;;
12635;SDS011;6383;50.830;7.210;2023-11-19T04:43:15;9.40;;;2.35;;
12635;SDS011;6383;50.830;7.210;2023-11-19T04:45:42;11.75;;;1.90;;
12635;SDS011;6383;50.830;7.210;2023-11-19T04:48:11;11.38;;;1.90;;
12635;SDS011;6383;50.830;7.210;2023-11-19T04:50:40;8.18;;;1.98;;
12635;SDS011;6383;50.830;7.210;2023-11-19T04:53:07;15.80;;;2.28;;
12635;SDS011;6383;50.830;7.210;2023-11-19T04:55:36;9.82;;;1.88;;
12635;SDS011;6383;50.830;7.210;2023-11-19T04:58:04;14.38;;;2.13;;
12635;SDS011;6383;50.830;7.210;2023-11-19T05:00:34;8.05;;;1.90;;
12635;SDS011;6383;50.830;7.210;2023-11-19T05:03:02;9.25;;;2.30;;
12635;SDS011;6383;50.830;7.210;2023-11-19T05:05:30;13.93;;;2.50;;
12635;SDS011;6383;50.830;7.210;2023-11-19T05:07:59;10.05;;;2.40;;
12635;SDS011;6383;50.830;7.210;2023-11-19T05:10:27;11.02;;;2.47;;
12635;SDS011;6383;50.830;7.210;2023-11-19T05:12:56;9.82;;;2.10;;
12635;SDS011;6383;50.830;7.210;2023-11-19T05:15:23;11.60;;;2.70;;
12635;SDS011;6383;50.830;7.210;2023-11-19T05:17:53;11.05;;;2.88;;
12635;SDS011;6383;50.830;7.210;2023-11-19T05:20:20;10.30;;;2.50;;
12635;SDS011;6383;50.830;7.210;2023-11-19T05:22:49;11.53;;;2.63;;
12635;SDS011;6383;50.830;7.210;2023-11-19T05:25:17;10.97;;;2.50;;
12635;SDS011;6383;50.830;7.210;2023-11-19T05:27:45;10.25;;;2.25;;
12635;SDS011;6383;50.830;7.210;2023-11-19T05:30:13;9.25;;;2.65;;
12635;SDS011;6383;50.830;7.210;2023-11-19T05:32:41;13.35;;;2.45;;
12635;SDS011;6383;50.830;7.210;2023-11-19T05:35:10;12.40;;;3.73;;
12635;SDS011;6383;50.830;7.210;2023-11-19T05:37:39;18.10;;;3.50;;
12635;SDS011;6383;50.830;7.210;2023-11-19T05:40:06;15.63;;;3.73;;
12635;SDS011;6383;50.830;7.210;2023-11-19T05:42:41;14.93;;;3.22;;
12635;SDS011;6383;50.830;7.210;2023-11-19T05:45:11;16.40;;;3.40;;
12635;SDS011;6383;50.830;7.210;2023-11-19T05:47:40;13.18;;;3.40;;
12635;SDS011;6383;50.830;7.210;2023-11-19T05:50:10;14.98;;;4.30;;
12635;SDS011;6383;50.830;7.210;2023-11-19T05:52:38;14.05;;;3.80;;
12635;SDS011;6383;50.830;7.210;2023-11-19T05:55:07;14.57;;;3.53;;
12635;SDS011;6383;50.830;7.210;2023-11-19T05:57:37;15.23;;;3.60;;
12635;SDS011;6383;50.830;7.210;2023-11-19T06:00:07;15.20;;;4.10;;
12635;SDS011;6383;50.830;7.210;2023-11-19T06:02:38;17.00;;;4.03;;
12635;SDS011;6383;50.830;7.210;2023-11-19T06:05:07;17.10;;;4.43;;
12635;SDS011;6383;50.830;7.210;2023-11-19T06:07:38;18.10;;;3.90;;
12635;SDS011;6383;50.830;7.210;2023-11-19T06:10:08;20.05;;;4.18;;
12635;SDS011;6383;50.830;7.210;2023-11-19T06:12:38;19.63;;;4.30;;
12635;SDS011;6383;50.830;7.210;2023-11-19T06:15:07;19.95;;;4.38;;
12635;SDS011;6383;50.830;7.210;2023-11-19T06:17:36;16.30;;;3.95;;
12635;SDS011;6383;50.830;7.210;2023-11-19T06:20:06;19.25;;;4.25;;
12635;SDS011;6383;50.830;7.210;2023-11-19T06:22:35;19.65;;;4.30;;
12635;SDS011;6383;50.830;7.210;2023-11-19T06:25:04;15.90;;;4.45;;
12635;SDS011;6383;50.830;7.210;2023-11-19T06:27:33;17.80;;;4.38;;
12635;SDS011;6383;50.830;7.210;2023-11-19T06:30:01;16.65;;;4.20;;
12635;SDS011;6383;50.830;7.210;2023-11-19T06:32:29;18.10;;;4.57;;
12635;SDS011;6383;50.830;7.210;2023-11-19T06:34:57;24.63;;;5.17;;
12635;SDS011;6383;50.830;7.210;2023-11-19T06:37:24;21.13;;;4.93;;
12635;SDS011;6383;50.830;7.210;2023-11-19T06:39:54;24.75;;;5.30;;
12635;SDS011;6383;50.830;7.210;2023-11-19T06:42:22;23.77;;;4.78;;
12635;SDS011;6383;50.830;7.210;2023-11-19T06:44:51;20.30;;;4.72;;
12635;SDS011;6383;50.830;7.210;2023-11-19T06:47:20;16.83;;;4.00;;
12635;SDS011;6383;50.830;7.210;2023-11-19T06:49:49;23.73;;;5.35;;
12635;SDS011;6383;50.830;7.210;2023-11-19T06:52:17;22.90;;;5.33;;
12635;SDS011;6383;50.830;7.210;2023-11-19T06:54:45;22.55;;;5.28;;
12635;SDS011;6383;50.830;7.210;2023-11-19T06:57:14;23.63;;;5.47;;
12635;SDS011;6383;50.830;7.210;2023-11-19T06:59:44;21.77;;;4.87;;
12635;SDS011;6383;50.830;7.210;2023-11-19T07:02:11;26.20;;;5.95;;
12635;SDS011;6383;50.830;7.210;2023-11-19T07:04:40;25.10;;;5.35;;
12635;SDS011;6383;50.830;7.210;2023-11-19T07:07:09;24.38;;;6.30;;
12635;SDS011;6383;50.830;7.210;2023-11-19T07:09:38;22.38;;;4.90;;
12635;SDS011;6383;50.830;7.210;2023-11-19T07:12:07;22.67;;;5.53;;
12635;SDS011;6383;50.830;7.210;2023-11-19T07:14:35;18.45;;;4.90;;
12635;SDS011;6383;50.830;7.210;2023-11-19T07:17:04;19.92;;;4.82;;
12635;SDS011;6383;50.830;7.210;2023-11-19T07:19:33;21.33;;;5.18;;
12635;SDS011;6383;50.830;7.210;2023-11-19T07:22:01;21.20;;;5.35;;
12635;SDS011;6383;50.830;7.210;2023-11-19T07:24:30;22.70;;;4.57;;
12635;SDS011;6383;50.830;7.210;2023-11-19T07:26:59;20.15;;;4.55;;
12635;SDS011;6383;50.830;7.210;2023-11-19T07:29:26;21.50;;;5.35;;
12635;SDS011;6383;50.830;7.210;2023-11-19T07:31:54;24.52;;;4.93;;
12635;SDS011;6383;50.830;7.210;2023-11-19T07:34:25;27.77;;;5.68;;
12635;SDS011;6383;50.830;7.210;2023-11-19T07:36:53;22.60;;;5.22;;
12635;SDS011;6383;50.830;7.210;2023-11-19T07:39:24;16.50;;;4.55;;
12635;SDS011;6383;50.830;7.210;2023-11-19T07:41:52;26.17;;;5.35;;
12635;SDS011;6383;50.830;7.210;2023-11-19T07:44:21;31.17;;;5.38;;
12635;SDS011;6383;50.830;7.210;2023-11-19T07:46:49;25.65;;;5.57;;
12635;SDS011;6383;50.830;7.210;2023-11-19T07:49:18;27.05;;;5.95;;
12635;SDS011;6383;50.830;7.210;2023-11-19T07:51:47;23.33;;;5.17;;
12635;SDS011;6383;50.830;7.210;2023-11-19T07:54:16;21.45;;;5.50;;
12635;SDS011;6383;50.830;7.210;2023-11-19T07:56:44;24.95;;;5.53;;
12635;SDS011;6383;50.830;7.210;2023-11-19T07:59:13;26.95;;;6.35;;
12635;SDS011;6383;50.830;7.210;2023-11-19T08:01:41;28.33;;;5.88;;
12635;SDS011;6383;50.830;7.210;2023-11-19T08:04:09;26.40;;;5.87;;
12635;SDS011;6383;50.830;7.210;2023-11-19T08:06:38;25.77;;;5.87;;
12635;SDS011;6383;50.830;7.210;2023-11-19T08:09:06;26.08;;;5.90;;
12635;SDS011;6383;50.830;7.210;2023-11-19T08:11:40;23.52;;;5.50;;
12635;SDS011;6383;50.830;7.210;2023-11-19T08:14:09;20.25;;;5.28;;
12635;SDS011;6383;50.830;7.210;2023-11-19T08:16:36;25.00;;;5.78;;
12635;SDS011;6383;50.830;7.210;2023-11-19T08:19:05;18.73;;;5.40;;
12635;SDS011;6383;50.830;7.210;2023-11-19T08:21:33;21.13;;;5.40;;
12635;SDS011;6383;50.830;7.210;2023-11-19T08:24:01;25.88;;;6.05;;
12635;SDS011;6383;50.830;7.210;2023-11-19T08:26:30;21.48;;;6.45;;
12635;SDS011;6383;50.830;7.210;2023-11-19T08:28:59;21.25;;;5.80;;
12635;SDS011;6383;50.830;7.210;2023-11-19T08:31:28;23.67;;;6.13;;
12635;SDS011;6383;50.830;7.210;2023-11-19T08:33:57;20.95;;;6.28;;
12635;SDS011;6383;50.830;7.210;2023-11-19T08:36:25;25.33;;;5.65;;
12635;SDS011;6383;50.830;7.210;2023-11-19T08:38:54;24.10;;;6.10;;
12635;SDS011;6383;50.830;7.210;2023-11-19T08:41:23;22.88;;;6.18;;
12635;SDS011;6383;50.830;7.210;2023-11-19T08:43:53;27.83;;;6.25;;
12635;SDS011;6383;50.830;7.210;2023-11-19T08:46:22;23.37;;;6.13;;
12635;SDS011;6383;50.830;7.210;2023-11-19T08:48:50;27.52;;;7.38;;
12635;SDS011;6383;50.830;7.210;2023-11-19T08:51:18;19.52;;;5.80;;
12635;SDS011;6383;50.830;7.210;2023-11-19T08:53:46;21.75;;;5.80;;
12635;SDS011;6383;50.830;7.210;2023-11-19T08:56:15;29.85;;;6.70;;
12635;SDS011;6383;50.830;7.210;2023-11-19T08:58:43;21.70;;;6.35;;
12635;SDS011;6383;50.830;7.210;2023-11-19T09:01:13;25.42;;;6.60;;
12635;SDS011;6383;50.830;7.210;2023-11-19T09:03:42;23.85;;;6.43;;
12635;SDS011;6383;50.830;7.210;2023-11-19T09:06:09;26.70;;;6.63;;
12635;SDS011;6383;50.830;7.210;2023-11-19T09:08:38;27.25;;;6.30;;
12635;SDS011;6383;50.830;7.210;2023-11-19T09:11:07;22.83;;;6.25;;
12635;SDS011;6383;50.830;7.210;2023-11-19T09:13:36;24.35;;;6.95;;
12635;SDS011;6383;50.830;7.210;2023-11-19T09:16:05;23.42;;;6.10;;
12635;SDS011;6383;50.830;7.210;2023-11-19T09:18:35;24.73;;;6.55;;
12635;SDS011;6383;50.830;7.210;2023-11-19T09:21:02;22.50;;;5.85;;
12635;SDS011;6383;50.830;7.210;2023-11-19T09:23:31;27.30;;;7.47;;
12635;SDS011;6383;50.830;7.210;2023-11-19T09:26:03;27.53;;;10.17;;
12635;SDS011;6383;50.830;7.210;2023-11-19T09:28:32;42.70;;;21.35;;
12635;SDS011;6383;50.830;7.210;2023-11-19T09:31:01;30.38;;;10.75;;
12635;SDS011;6383;50.830;7.210;2023-11-19T09:33:31;31.42;;;11.00;;
12635;SDS011;6383;50.830;7.210;2023-11-19T09:36:03;43.65;;;17.88;;
12635;SDS011;6383;50.830;7.210;2023-11-19T09:38:31;32.38;;;10.75;;
12635;SDS011;6383;50.830;7.210;2023-11-19T09:40:58;21.73;;;5.93;;
12635;SDS011;6383;50.830;7.210;2023-11-19T09:43:25;28.47;;;6.53;;
12635;SDS011;6383;50.830;7.210;2023-11-19T09:45:55;23.77;;;6.43;;
12635;SDS011;6383;50.830;7.210;2023-11-19T09:48:24;20.17;;;6.00;;
12635;SDS011;6383;50.830;7.210;2023-11-19T09:50:52;23.77;;;6.68;;
12635;SDS011;6383;50.830;7.210;2023-11-19T09:53:23;31.10;;;7.05;;
12635;SDS011;6383;50.830;7.210;2023-11-19T09:55:50;24.83;;;6.80;;
12635;SDS011;6383;50.830;7.210;2023-11-19T09:58:19;29.15;;;10.32;;
12635;SDS011;6383;50.830;7.210;2023-11-19T10:00:48;28.15;;;10.00;;
12635;SDS011;6383;50.830;7.210;2023-11-19T10:03:16;27.75;;;9.57;;
12635;SDS011;6383;50.830;7.210;2023-11-19T10:05:45;29.70;;;6.38;;
12635;SDS011;6383;50.830;7.210;2023-11-19T10:08:14;22.05;;;5.95;;
12635;SDS011;6383;50.830;7.210;2023-11-19T10:10:45;33.22;;;8.43;;
12635;SDS011;6383;50.830;7.210;2023-11-19T10:13:12;30.95;;;8.00;;
12635;SDS011;6383;50.830;7.210;2023-11-19T10:15:42;28.10;;;6.47;;
12635;SDS011;6383;50.830;7.210;2023-11-19T10:18:10;28.00;;;7.40;;
12635;SDS011;6383;50.830;7.210;2023-11-19T10:20:40;28.80;;;8.90;;
12635;SDS011;6383;50.830;7.210;2023-11-19T10:23:09;25.83;;;8.65;;
12635;SDS011;6383;50.830;7.210;2023-11-19T10:25:38;29.08;;;9.77;;
12635;SDS011;6383;50.830;7.210;2023-11-19T10:28:08;24.98;;;7.75;;
12635;SDS011;6383;50.830;7.210;2023-11-19T10:30:37;25.17;;;7.78;;
12635;SDS011;6383;50.830;7.210;2023-11-19T10:33:05;27.60;;;7.43;;
12635;SDS011;6383;50.830;7.210;2023-11-19T10:35:33;24.57;;;8.30;;
12635;SDS011;6383;50.830;7.210;2023-11-19T10:38:03;26.83;;;7.40;;
12635;SDS011;6383;50.830;7.210;2023-11-19T10:40:41;26.95;;;8.25;;
12635;SDS011;6383;50.830;7.210;2023-11-19T10:43:10;24.77;;;7.55;;
12635;SDS011;6383;50.830;7.210;2023-11-19T10:45:39;26.42;;;6.95;;
12635;SDS011;6383;50.830;7.210;2023-11-19T10:48:08;23.35;;;6.40;;
12635;SDS011;6383;50.830;7.210;2023-11-19T10:50:37;25.27;;;6.82;;
12635;SDS011;6383;50.830;7.210;2023-11-19T10:53:05;27.30;;;8.30;;
12635;SDS011;6383;50.830;7.210;2023-11-19T10:55:34;26.00;;;7.90;;
12635;SDS011;6383;50.830;7.210;2023-11-19T10:58:02;23.08;;;6.95;;
12635;SDS011;6383;50.830;7.210;2023-11-19T11:00:37;25.60;;;7.05;;
12635;SDS011;6383;50.830;7.210;2023-11-19T11:03:08;26.30;;;6.75;;
12635;SDS011;6383;50.830;7.210;2023-11-19T11:05:38;21.37;;;6.33;;
12635;SDS011;6383;50.830;7.210;2023-11-19T11:08:06;25.38;;;7.47;;
12635;SDS011;6383;50.830;7.210;2023-11-19T11:10:35;22.67;;;6.90;;
12635;SDS011;6383;50.830;7.210;2023-11-19T11:13:04;25.77;;;7.13;;
12635;SDS011;6383;50.830;7.210;2023-11-19T11:15:32;25.00;;;6.30;;
12635;SDS011;6383;50.830;7.210;2023-11-19T11:18:03;22.77;;;6.20;;
12635;SDS011;6383;50.830;7.210;2023-11-19T11:20:33;22.92;;;6.80;;
12635;SDS011;6383;50.830;7.210;2023-11-19T11:23:11;24.33;;;6.57;;
12635;SDS011;6383;50.830;7.210;2023-11-19T11:25:46;22.60;;;7.32;;
12635;SDS011;6383;50.830;7.210;2023-11-19T11:28:20;23.67;;;6.82;;
12635;SDS011;6383;50.830;7.210;2023-11-19T11:30:55;23.10;;;6.57;;
12635;SDS011;6383;50.830;7.210;2023-11-19T11:33:32;27.00;;;7.38;;
12635;SDS011;6383;50.830;7.210;2023-11-19T11:36:06;23.20;;;6.40;;
12635;SDS011;6383;50.830;7.210;2023-11-19T11:38:40;27.92;;;6.32;;
12635;SDS011;6383;50.830;7.210;2023-11-19T11:41:15;19.75;;;5.10;;
12635;SDS011;6383;50.830;7.210;2023-11-19T11:43:47;19.42;;;5.00;;
12635;SDS011;6383;50.830;7.210;2023-11-19T11:49:07;24.13;;;5.75;;
12635;SDS011;6383;50.830;7.210;2023-11-19T11:54:28;20.90;;;5.45;;
12635;SDS011;6383;50.830;7.210;2023-11-19T11:57:01;20.13;;;5.38;;
12635;SDS011;6383;50.830;7.210;2023-11-19T11:59:37;19.55;;;5.47;;
12635;SDS011;6383;50.830;7.210;2023-11-19T12:02:07;20.48;;;5.20;;
12635;SDS011;6383;50.830;7.210;2023-11-19T12:04:36;15.82;;;4.70;;
12635;SDS011;6383;50.830;7.210;2023-11-19T12:07:04;16.58;;;4.60;;
12635;SDS011;6383;50.830;7.210;2023-11-19T12:09:32;16.63;;;4.75;;
12635;SDS011;6383;50.830;7.210;2023-11-19T12:12:11;19.15;;;4.95;;
12635;SDS011;6383;50.830;7.210;2023-11-19T12:20:14;15.23;;;4.90;;
12635;SDS011;6383;50.830;7.210;2023-11-19T12:22:43;17.75;;;5.93;;
12635;SDS011;6383;50.830;7.210;2023-11-19T12:25:12;18.93;;;5.53;;
12635;SDS011;6383;50.830;7.210;2023-11-19T12:27:40;13.97;;;5.13;;
12635;SDS011;6383;50.830;7.210;2023-11-19T12:30:08;21.02;;;5.70;;
12635;SDS011;6383;50.830;7.210;2023-11-19T12:32:39;15.45;;;5.07;;
12635;SDS011;6383;50.830;7.210;2023-11-19T12:35:08;18.77;;;6.22;;
12635;SDS011;6383;50.830;7.210;2023-11-19T12:37:40;15.77;;;5.18;;
12635;SDS011;6383;50.830;7.210;2023-11-19T12:40:13;18.70;;;5.93;;
12635;SDS011;6383;50.830;7.210;2023-11-19T12:42:42;17.40;;;5.40;;
12635;SDS011;6383;50.830;7.210;2023-11-19T12:45:11;18.43;;;5.37;;
12635;SDS011;6383;50.830;7.210;2023-11-19T12:47:40;15.40;;;4.40;;
12635;SDS011;6383;50.830;7.210;2023-11-19T12:50:09;17.42;;;4.88;;
12635;SDS011;6383;50.830;7.210;2023-11-19T12:52:38;18.38;;;5.00;;
12635;SDS011;6383;50.830;7.210;2023-11-19T12:57:50;20.45;;;5.50;;
12635;SDS011;6383;50.830;7.210;2023-11-19T13:00:20;21.65;;;5.65;;
12635;SDS011;6383;50.830;7.210;2023-11-19T13:02:49;16.95;;;4.63;;
12635;SDS011;6383;50.830;7.210;2023-11-19T13:05:24;15.43;;;4.22;;
12635;SDS011;6383;50.830;7.210;2023-11-19T13:07:57;17.42;;;4.90;;
12635;SDS011;6383;50.830;7.210;2023-11-19T13:10:26;18.45;;;5.03;;
12635;SDS011;6383;50.830;7.210;2023-11-19T13:13:06;19.42;;;5.15;;
12635;SDS011;6383;50.830;7.210;2023-11-19T13:15:34;13.75;;;4.20;;
12635;SDS011;6383;50.830;7.210;2023-11-19T13:18:03;16.67;;;4.70;;
12635;SDS011;6383;50.830;7.210;2023-11-19T13:20:31;17.75;;;4.95;;
12635;SDS011;6383;50.830;7.210;2023-11-19T13:22:59;12.70;;;4.18;;
12635;SDS011;6383;50.830;7.210;2023-11-19T13:25:28;14.63;;;4.97;;
12635;SDS011;6383;50.830;7.210;2023-11-19T13:27:57;14.57;;;3.92;;
12635;SDS011;6383;50.830;7.210;2023-11-19T13:30:27;12.82;;;3.83;;
12635;SDS011;6383;50.830;7.210;2023-11-19T13:32:56;14.48;;;4.05;;
12635;SDS011;6383;50.830;7.210;2023-11-19T13:35:25;13.07;;;3.60;;
12635;SDS011;6383;50.830;7.210;2023-11-19T13:37:54;11.85;;;3.88;;
12635;SDS011;6383;50.830;7.210;2023-11-19T13:40:23;12.95;;;4.95;;
12635;SDS011;6383;50.830;7.210;2023-11-19T13:42:52;13.45;;;4.32;;
12635;SDS011;6383;50.830;7.210;2023-11-19T13:45:19;15.90;;;4.50;;
12635;SDS011;6383;50.830;7.210;2023-11-19T13:47:49;17.00;;;4.47;;
12635;SDS011;6383;50.830;7.210;2023-11-19T13:50:17;17.85;;;4.65;;
12635;SDS011;6383;50.830;7.210;2023-11-19T13:52:46;15.80;;;4.70;;
12635;SDS011;6383;50.830;7.210;2023-11-19T13:55:14;18.27;;;5.05;;
12635;SDS011;6383;50.830;7.210;2023-11-19T13:57:43;19.40;;;4.93;;
12635;SDS011;6383;50.830;7.210;2023-11-19T14:00:12;18.33;;;5.13;;
12635;SDS011;6383;50.830;7.210;2023-11-19T14:02:41;19.00;;;5.10;;
12635;SDS011;6383;50.830;7.210;2023-11-19T14:05:11;19.55;;;5.00;;
12635;SDS011;6383;50.830;7.210;2023-11-19T14:07:40;17.73;;;4.43;;
12635;SDS011;6383;50.830;7.210;2023-11-19T14:10:08;22.48;;;5.38;;
12635;SDS011;6383;50.830;7.210;2023-11-19T14:12:38;19.27;;;4.88;;
12635;SDS011;6383;50.830;7.210;2023-11-19T14:15:08;21.42;;;5.55;;
12635;SDS011;6383;50.830;7.210;2023-11-19T14:17:37;18.58;;;4.47;;
12635;SDS011;6383;50.830;7.210;2023-11-19T14:20:05;17.67;;;5.07;;
12635;SDS011;6383;50.830;7.210;2023-11-19T14:22:41;18.98;;;5.63;;
12635;SDS011;6383;50.830;7.210;2023-11-19T14:25:10;21.40;;;4.90;;
12635;SDS011;6383;50.830;7.210;2023-11-19T14:27:39;22.48;;;5.45;;
12635;SDS011;6383;50.830;7.210;2023-11-19T14:30:09;16.80;;;4.63;;
12635;SDS011;6383;50.830;7.210;2023-11-19T14:32:38;19.08;;;4.88;;
12635;SDS011;6383;50.830;7.210;2023-11-19T14:35:07;19.30;;;5.03;;
12635;SDS011;6383;50.830;7.210;2023-11-19T14:37:35;19.73;;;5.70;;
12635;SDS011;6383;50.830;7.210;2023-11-19T14:40:05;18.33;;;5.13;;
12635;SDS011;6383;50.830;7.210;2023-11-19T14:42:35;20.40;;;4.97;;
12635;SDS011;6383;50.830;7.210;2023-11-19T14:45:04;17.25;;;4.93;;
12635;SDS011;6383;50.830;7.210;2023-11-19T14:47:32;18.85;;;4.88;;
12635;SDS011;6383;50.830;7.210;2023-11-19T14:49:59;20.45;;;5.68;;
12635;SDS011;6383;50.830;7.210;2023-11-19T14:52:27;22.15;;;6.50;;
12635;SDS011;6383;50.830;7.210;2023-11-19T14:54:56;15.15;;;4.40;;
12635;SDS011;6383;50.830;7.210;2023-11-19T14:57:25;16.02;;;4.60;;
12635;SDS011;6383;50.830;7.210;2023-11-19T14:59:54;15.52;;;3.92;;
12635;SDS011;6383;50.830;7.210;2023-11-19T15:02:23;17.70;;;4.10;;
12635;SDS011;6383;50.830;7.210;2023-11-19T15:04:50;13.73;;;3.92;;
12635;SDS011;6383;50.830;7.210;2023-11-19T15:07:18;12.90;;;4.03;;
12635;SDS011;6383;50.830;7.210;2023-11-19T15:09:48;11.05;;;3.33;;
12635;SDS011;6383;50.830;7.210;2023-11-19T15:12:15;14.20;;;3.58;;
12635;SDS011;6383;50.830;7.210;2023-11-19T15:14:45;16.93;;;4.50;;
12635;SDS011;6383;50.830;7.210;2023-11-19T15:17:12;15.15;;;4.15;;